createdAt,value
2022-10-27T00:01:29.304Z,2.97
2022-10-27T00:03:57.767Z,2.78
2022-10-27T00:06:26.270Z,3.92
2022-10-27T00:08:54.670Z,3.75
2022-10-27T00:11:23.225Z,3.40
2022-10-27T00:13:52.992Z,3.33
2022-10-27T00:16:21.525Z,3.75
2022-10-27T00:18:49.932Z,3.28
2022-10-27T00:21:20.297Z,3.20
2022-10-27T00:23:49.787Z,3.22
2022-10-27T00:26:19.509Z,3.38
2022-10-27T00:28:48.330Z,3.08
2022-10-27T00:31:20.740Z,3.75
2022-10-27T00:33:50.845Z,5.38
2022-10-27T00:36:21.302Z,4.28
2022-10-27T00:38:49.848Z,3.45
2022-10-27T00:41:27.055Z,4.40
2022-10-27T00:43:56.234Z,3.58
2022-10-27T00:46:32.829Z,3.53
2022-10-27T00:49:04.391Z,3.20
2022-10-27T00:51:33.273Z,3.60
2022-10-27T00:54:02.700Z,3.47
2022-10-27T00:56:31.297Z,3.67
2022-10-27T00:59:00.613Z,4.15
2022-10-27T01:01:30.541Z,3.05
2022-10-27T01:04:00.944Z,3.58
2022-10-27T01:06:29.474Z,3.70
2022-10-27T01:08:59.989Z,3.80
2022-10-27T01:11:28.648Z,2.75
2022-10-27T01:13:57.290Z,4.38
2022-10-27T01:16:37.242Z,3.70
2022-10-27T01:19:29.134Z,3.15
2022-10-27T01:22:10.590Z,2.90
2022-10-27T01:24:47.920Z,3.80
2022-10-27T01:27:33.863Z,3.28
2022-10-27T01:30:09.930Z,3.08
2022-10-27T01:35:21.978Z,2.75
2022-10-27T01:37:57.254Z,3.20
2022-10-27T01:40:31.523Z,3.22
2022-10-27T01:43:04.313Z,3.45
2022-10-27T01:45:35.968Z,3.92
2022-10-27T01:48:08.265Z,3.72
2022-10-27T01:50:45.148Z,3.88
2022-10-27T01:53:25.702Z,3.20
2022-10-27T01:56:05.870Z,4.20
2022-10-27T01:58:59.593Z,3.42
2022-10-27T02:01:44.729Z,3.50
2022-10-27T02:04:23.860Z,3.00
2022-10-27T02:06:58.185Z,3.78
2022-10-27T02:09:36.442Z,3.47
2022-10-27T02:12:10.986Z,3.55
2022-10-27T02:14:41.952Z,3.13
2022-10-27T02:17:13.852Z,3.28
2022-10-27T02:19:47.553Z,4.35
2022-10-27T02:22:16.752Z,3.92
2022-10-27T02:24:45.429Z,3.60
2022-10-27T02:27:22.815Z,4.50
2022-10-27T02:29:54.404Z,4.13
2022-10-27T02:32:25.020Z,4.10
2022-10-27T02:34:54.909Z,4.05
2022-10-27T02:39:55.496Z,3.88
2022-10-27T02:42:23.952Z,4.47
2022-10-27T02:44:52.433Z,3.63
2022-10-27T02:47:20.915Z,4.57
2022-10-27T02:49:49.385Z,3.42
2022-10-27T02:52:19.243Z,3.67
2022-10-27T02:57:17.183Z,4.22
2022-10-27T02:59:49.497Z,3.63
2022-10-27T03:02:22.906Z,4.13
2022-10-27T03:04:51.512Z,4.43
2022-10-27T03:07:21.841Z,4.18
2022-10-27T03:09:50.258Z,3.80
2022-10-27T03:12:18.672Z,4.57
2022-10-27T03:14:47.082Z,4.57
2022-10-27T03:17:15.555Z,3.60
2022-10-27T03:19:43.936Z,4.10
2022-10-27T03:22:13.054Z,4.20
2022-10-27T03:24:42.792Z,4.10
2022-10-27T03:27:11.180Z,3.45
2022-10-27T03:29:39.592Z,4.18
2022-10-27T03:32:08.040Z,4.20
2022-10-27T03:34:36.450Z,3.75
2022-10-27T03:37:04.897Z,5.22
2022-10-27T03:39:33.334Z,4.68
2022-10-27T03:42:03.166Z,3.97
2022-10-27T03:44:31.561Z,4.30
2022-10-27T03:46:59.956Z,3.95
2022-10-27T03:52:01.660Z,3.90
2022-10-27T03:54:31.076Z,4.57
2022-10-27T03:56:59.552Z,3.83
2022-10-27T03:59:29.273Z,4.47
2022-10-27T04:01:59.239Z,4.55
2022-10-27T04:04:29.530Z,4.35
2022-10-27T04:06:57.910Z,4.70
2022-10-27T04:09:26.342Z,3.97
2022-10-27T04:11:54.735Z,4.50
2022-10-27T04:14:23.428Z,4.88
2022-10-27T04:16:53.199Z,5.57
2022-10-27T04:19:22.590Z,4.88
2022-10-27T04:21:51.379Z,4.30
2022-10-27T04:24:19.752Z,4.70
2022-10-27T04:26:48.161Z,6.78
2022-10-27T04:29:16.585Z,6.70
2022-10-27T04:31:44.976Z,6.47
2022-10-27T04:34:14.720Z,6.75
2022-10-27T04:36:43.101Z,6.30
2022-10-27T04:39:14.075Z,5.88
2022-10-27T04:41:43.360Z,6.18
2022-10-27T04:44:11.725Z,5.82
2022-10-27T04:46:40.337Z,5.43
2022-10-27T04:49:08.775Z,5.95
2022-10-27T04:51:38.540Z,5.70
2022-10-27T04:54:06.994Z,6.05
2022-10-27T04:56:35.562Z,5.55
2022-10-27T04:59:03.979Z,4.75
2022-10-27T05:01:32.499Z,5.85
2022-10-27T05:04:01.580Z,14.52
2022-10-27T05:06:30.010Z,5.05
2022-10-27T05:08:59.772Z,5.50
2022-10-27T05:11:28.188Z,5.25
2022-10-27T05:13:56.599Z,6.05
2022-10-27T05:16:25.056Z,6.00
2022-10-27T05:18:53.477Z,5.25
2022-10-27T05:21:21.947Z,5.65
2022-10-27T05:23:50.457Z,5.90
2022-10-27T05:26:20.263Z,5.32
2022-10-27T05:28:49.153Z,6.13
2022-10-27T05:31:17.572Z,6.00
2022-10-27T05:33:46.023Z,5.68
2022-10-27T05:36:14.420Z,5.60
2022-10-27T05:38:42.817Z,5.45
2022-10-27T05:41:11.235Z,5.50
2022-10-27T05:43:42.682Z,5.60
2022-10-27T05:46:11.252Z,6.00
2022-10-27T05:48:39.642Z,5.47
2022-10-27T05:51:08.357Z,5.55
2022-10-27T05:53:36.796Z,4.72
2022-10-27T05:58:27.218Z,4.95
2022-10-27T06:00:59.489Z,5.32
2022-10-27T06:03:28.377Z,4.78
2022-10-27T06:05:56.859Z,5.07
2022-10-27T06:08:25.274Z,5.10
2022-10-27T06:10:53.728Z,4.88
2022-10-27T06:13:22.117Z,5.03
2022-10-27T06:15:52.002Z,5.20
2022-10-27T06:18:20.507Z,4.53
2022-10-27T06:20:49.072Z,5.45
2022-10-27T06:23:17.484Z,4.95
2022-10-27T06:25:45.957Z,4.35
2022-10-27T06:28:14.335Z,4.97
2022-10-27T06:30:44.277Z,4.40
2022-10-27T06:33:14.043Z,4.65
2022-10-27T06:38:16.309Z,3.97
2022-10-27T06:40:45.399Z,4.63
2022-10-27T06:43:15.026Z,4.65
2022-10-27T06:45:47.653Z,4.40
2022-10-27T06:48:17.522Z,4.55
2022-10-27T06:53:14.669Z,4.60
2022-10-27T06:55:43.120Z,4.18
2022-10-27T06:58:11.560Z,4.75
2022-10-27T07:00:40.015Z,4.22
2022-10-27T07:05:40.766Z,3.67
2022-10-27T07:10:37.450Z,3.92
2022-10-27T07:13:06.064Z,4.05
2022-10-27T07:15:37.005Z,3.45
2022-10-27T07:18:07.776Z,3.70
2022-10-27T07:20:38.986Z,3.78
2022-10-27T07:23:10.865Z,3.75
2022-10-27T07:25:40.082Z,3.83
2022-10-27T07:28:08.852Z,3.45
2022-10-27T07:30:39.635Z,3.83
2022-10-27T07:33:08.086Z,3.65
2022-10-27T07:35:36.546Z,3.92
2022-10-27T07:38:06.769Z,3.42
2022-10-27T07:40:36.565Z,2.85
2022-10-27T07:45:38.057Z,2.72
2022-10-27T07:48:07.791Z,2.95
2022-10-27T07:55:36.677Z,2.78
2022-10-27T07:58:08.274Z,2.15
2022-10-27T08:00:38.840Z,2.47
2022-10-27T08:03:09.236Z,2.63
2022-10-27T08:05:38.414Z,2.13
2022-10-27T08:08:08.318Z,2.20
2022-10-27T08:10:40.129Z,2.55
2022-10-27T08:13:09.928Z,2.50
2022-10-27T08:18:07.695Z,2.25
2022-10-27T08:20:39.349Z,2.30
2022-10-27T08:23:11.523Z,2.05
2022-10-27T08:25:42.224Z,2.00
2022-10-27T08:28:11.780Z,2.33
2022-10-27T08:30:49.766Z,2.63
2022-10-27T08:33:21.353Z,2.03
2022-10-27T08:35:51.424Z,2.10
2022-10-27T08:38:20.219Z,2.15
2022-10-27T08:41:09.810Z,2.03
2022-10-27T08:44:07.144Z,1.73
2022-10-27T08:46:43.958Z,1.88
2022-10-27T08:49:28.100Z,1.60
2022-10-27T08:52:01.442Z,1.75
2022-10-27T08:54:30.239Z,2.78
2022-10-27T08:57:03.070Z,2.72
2022-10-27T08:59:34.757Z,1.63
2022-10-27T09:02:26.812Z,2.00
2022-10-27T09:05:16.486Z,1.65
2022-10-27T09:07:57.396Z,1.65
2022-10-27T09:10:42.065Z,1.77
2022-10-27T09:13:25.345Z,1.83
2022-10-27T09:15:57.063Z,1.42
2022-10-27T09:18:29.309Z,2.20
2022-10-27T09:20:59.474Z,1.88
2022-10-27T09:23:34.175Z,1.58
2022-10-27T09:26:07.353Z,1.60
2022-10-27T09:28:43.405Z,1.90
2022-10-27T09:31:16.248Z,1.63
2022-10-27T09:33:52.714Z,1.65
2022-10-27T09:36:23.913Z,1.98
2022-10-27T09:38:52.376Z,1.75
2022-10-27T09:41:20.883Z,1.70
2022-10-27T09:43:58.575Z,1.65
2022-10-27T09:46:30.781Z,1.50
2022-10-27T09:49:06.881Z,1.77
2022-10-27T09:51:44.384Z,1.58
2022-10-27T09:54:31.729Z,1.60
2022-10-27T09:57:05.616Z,1.83
2022-10-27T09:59:37.808Z,1.83
2022-10-27T10:02:19.070Z,1.52
2022-10-27T10:04:48.001Z,1.83
2022-10-27T10:07:32.360Z,1.67
2022-10-27T10:10:07.897Z,1.50
2022-10-27T10:15:20.885Z,1.45
2022-10-27T10:17:56.103Z,1.40
2022-10-27T10:20:34.610Z,2.53
2022-10-27T10:23:05.227Z,3.60
2022-10-27T10:25:35.250Z,1.50
2022-10-27T10:28:06.235Z,1.50
2022-10-27T10:30:39.052Z,1.42
2022-10-27T10:33:14.683Z,1.75
2022-10-27T10:38:30.773Z,1.67
2022-10-27T10:41:13.145Z,1.73
2022-10-27T10:43:42.037Z,1.80
2022-10-27T10:46:21.937Z,1.80
2022-10-27T10:48:52.662Z,2.35
2022-10-27T10:51:29.462Z,2.35
2022-10-27T10:54:01.912Z,1.33
2022-10-27T10:56:32.800Z,1.70
2022-10-27T10:59:08.617Z,1.90
2022-10-27T11:01:46.203Z,1.50
2022-10-27T11:04:18.213Z,1.65
2022-10-27T11:07:01.387Z,1.77
2022-10-27T11:09:38.761Z,1.40
2022-10-27T11:12:18.867Z,1.13
2022-10-27T11:14:53.823Z,1.80
2022-10-27T11:17:26.895Z,1.40
2022-10-27T11:19:57.028Z,1.60
2022-10-27T11:22:27.293Z,1.75
2022-10-27T11:25:01.166Z,1.73
2022-10-27T11:27:39.204Z,1.23
2022-10-27T11:30:21.396Z,1.65
2022-10-27T11:33:00.234Z,1.48
2022-10-27T11:35:34.652Z,1.05
2022-10-27T11:38:09.401Z,1.35
2022-10-27T11:40:45.226Z,2.40
2022-10-27T11:43:19.695Z,1.73
2022-10-27T11:45:54.462Z,1.33
2022-10-27T11:48:28.153Z,1.40
2022-10-27T11:51:02.961Z,1.45
2022-10-27T11:53:31.791Z,1.58
2022-10-27T11:56:25.252Z,2.03
2022-10-27T11:59:03.135Z,1.65
2022-10-27T12:01:47.363Z,1.70
2022-10-27T12:04:28.702Z,1.42
2022-10-27T12:07:05.340Z,1.40
2022-10-27T12:09:47.860Z,1.33
2022-10-27T12:12:24.537Z,1.30
2022-10-27T12:15:01.041Z,1.10
2022-10-27T12:17:38.450Z,1.13
2022-10-27T12:20:13.855Z,1.30
2022-10-27T12:25:21.290Z,1.25
2022-10-27T12:27:55.171Z,1.10
2022-10-27T12:30:25.347Z,1.20
2022-10-27T12:33:01.335Z,1.10
2022-10-27T12:35:35.197Z,1.27
2022-10-27T12:38:13.511Z,1.13
2022-10-27T12:40:47.333Z,1.45
2022-10-27T12:43:23.401Z,1.23
2022-10-27T12:46:07.441Z,2.38
2022-10-27T12:48:43.852Z,1.60
2022-10-27T12:51:23.802Z,1.33
2022-10-27T12:53:56.283Z,1.30
2022-10-27T12:56:35.854Z,1.27
2022-10-27T12:59:20.306Z,1.70
2022-10-27T13:01:57.258Z,1.20
2022-10-27T13:05:16.247Z,1.80
2022-10-27T13:08:22.884Z,1.10
2022-10-27T13:11:16.435Z,1.48
2022-10-27T13:14:00.864Z,1.50
2022-10-27T13:16:40.670Z,1.40
2022-10-27T13:19:32.105Z,1.45
2022-10-27T13:22:09.637Z,1.83
2022-10-27T13:24:45.814Z,1.55
2022-10-27T13:27:22.021Z,2.05
2022-10-27T13:29:55.003Z,1.42
2022-10-27T13:32:38.857Z,1.65
2022-10-27T13:35:29.861Z,1.60
2022-10-27T13:38:31.341Z,1.42
2022-10-27T13:40:59.880Z,1.52
2022-10-27T13:43:47.271Z,1.10
2022-10-27T13:46:17.832Z,1.63
2022-10-27T13:48:50.265Z,1.50
2022-10-27T13:52:06.064Z,1.38
2022-10-27T13:55:20.369Z,1.50
2022-10-27T13:58:18.385Z,1.42
2022-10-27T14:01:00.775Z,1.48
2022-10-27T14:03:59.757Z,1.40
2022-10-27T14:06:32.922Z,1.65
2022-10-27T14:09:20.897Z,1.98
2022-10-27T14:11:51.029Z,1.13
2022-10-27T14:14:29.015Z,1.80
2022-10-27T14:17:06.585Z,1.40
2022-10-27T14:19:36.541Z,1.52
2022-10-27T14:22:05.864Z,1.38
2022-10-27T14:27:16.574Z,1.20
2022-10-27T14:29:45.000Z,1.25
2022-10-27T14:32:16.677Z,1.48
2022-10-27T14:34:45.124Z,1.55
2022-10-27T14:37:19.273Z,1.80
2022-10-27T14:39:50.499Z,1.50
2022-10-27T14:42:26.889Z,1.73
2022-10-27T14:45:01.868Z,1.17
2022-10-27T14:47:33.320Z,1.80
2022-10-27T14:50:06.189Z,1.50
2022-10-27T14:52:43.713Z,1.75
2022-10-27T14:55:20.884Z,1.52
2022-10-27T14:57:51.824Z,1.38
2022-10-27T15:00:23.416Z,1.40
2022-10-27T15:02:54.001Z,0.95
2022-10-27T15:05:24.597Z,1.48
2022-10-27T15:07:55.887Z,1.35
2022-10-27T15:10:25.058Z,1.08
2022-10-27T15:12:57.385Z,1.70
2022-10-27T15:15:41.153Z,1.20
2022-10-27T15:18:20.794Z,1.35
2022-10-27T15:20:50.058Z,1.70
2022-10-27T15:23:20.155Z,1.48
2022-10-27T15:25:56.740Z,1.30
2022-10-27T15:28:31.066Z,1.52
2022-10-27T15:31:00.733Z,1.67
2022-10-27T15:33:39.011Z,1.73
2022-10-27T15:36:21.097Z,1.55
2022-10-27T15:38:50.884Z,1.60
2022-10-27T15:41:21.751Z,1.40
2022-10-27T15:43:51.781Z,1.85
2022-10-27T15:46:29.776Z,1.60
2022-10-27T15:49:22.840Z,1.55
2022-10-27T15:51:54.207Z,1.33
2022-10-27T15:54:31.557Z,1.40
2022-10-27T15:57:00.637Z,1.70
2022-10-27T15:59:31.058Z,1.67
2022-10-27T16:02:03.711Z,1.88
2022-10-27T16:04:35.661Z,1.58
2022-10-27T16:07:30.368Z,1.17
2022-10-27T16:09:59.494Z,1.30
2022-10-27T16:12:39.580Z,1.50
2022-10-27T16:15:17.291Z,1.50
2022-10-27T16:17:48.610Z,1.63
2022-10-27T16:20:20.492Z,1.40
2022-10-27T16:22:49.701Z,1.42
2022-10-27T16:25:20.795Z,1.27
2022-10-27T16:27:49.285Z,1.20
2022-10-27T16:30:20.054Z,1.60
2022-10-27T16:32:50.600Z,1.77
2022-10-27T16:35:20.598Z,1.30
2022-10-27T16:37:49.313Z,1.25
2022-10-27T16:40:19.003Z,1.60
2022-10-27T16:42:50.408Z,1.38
2022-10-27T16:45:21.387Z,1.35
2022-10-27T16:47:51.553Z,1.23
2022-10-27T16:50:22.273Z,1.60
2022-10-27T16:52:53.206Z,1.98
2022-10-27T16:55:21.907Z,1.75
2022-10-27T16:57:50.649Z,1.85
2022-10-27T17:00:19.323Z,1.33
2022-10-27T17:02:50.681Z,1.60
2022-10-27T17:05:19.087Z,1.55
2022-10-27T17:07:50.401Z,1.90
2022-10-27T17:10:19.140Z,1.70
2022-10-27T17:12:47.577Z,1.90
2022-10-27T17:15:16.177Z,1.77
2022-10-27T17:17:44.777Z,1.90
2022-10-27T17:20:13.279Z,1.60
2022-10-27T17:22:41.734Z,1.65
2022-10-27T17:25:12.170Z,1.83
2022-10-27T17:27:40.596Z,1.85
2022-10-27T17:30:10.265Z,2.40
2022-10-27T17:32:38.730Z,2.05
2022-10-27T17:35:07.435Z,2.20
2022-10-27T17:37:35.957Z,1.88
2022-10-27T17:40:04.771Z,2.00
2022-10-27T17:42:34.813Z,1.73
2022-10-27T17:45:03.262Z,2.33
2022-10-27T17:47:32.655Z,2.60
2022-10-27T17:50:04.720Z,2.05
2022-10-27T17:52:36.685Z,1.80
2022-10-27T17:55:08.386Z,1.95
2022-10-27T17:57:38.228Z,2.15
2022-10-27T18:00:07.624Z,1.85
2022-10-27T18:02:40.868Z,2.42
2022-10-27T18:05:09.548Z,2.55
2022-10-27T18:07:37.994Z,2.83
2022-10-27T18:10:07.511Z,2.83
2022-10-27T18:15:23.955Z,2.72
2022-10-27T18:17:54.556Z,2.53
2022-10-27T18:20:23.115Z,2.33
2022-10-27T18:22:52.989Z,2.50
2022-10-27T18:25:21.791Z,2.42
2022-10-27T18:27:50.341Z,2.38
2022-10-27T18:30:20.251Z,2.35
2022-10-27T18:32:48.693Z,2.35
2022-10-27T18:35:17.267Z,2.53
2022-10-27T18:37:45.766Z,2.10
2022-10-27T18:40:14.488Z,2.67
2022-10-27T18:42:42.990Z,2.67
2022-10-27T18:45:11.557Z,2.45
2022-10-27T18:47:41.387Z,2.65
2022-10-27T18:50:10.726Z,2.70
2022-10-27T18:52:39.282Z,2.75
2022-10-27T18:55:07.969Z,2.58
2022-10-27T18:57:36.537Z,2.55
2022-10-27T19:00:06.246Z,2.38
2022-10-27T19:02:34.887Z,2.70
2022-10-27T19:05:05.391Z,2.72
2022-10-27T19:07:33.905Z,2.50
2022-10-27T19:10:02.559Z,3.08
2022-10-27T19:12:31.055Z,3.22
2022-10-27T19:14:59.561Z,2.78
2022-10-27T19:17:28.096Z,3.00
2022-10-27T19:19:57.169Z,2.50
2022-10-27T19:22:27.030Z,2.58
2022-10-27T19:24:55.514Z,2.90
2022-10-27T19:27:24.041Z,2.80
2022-10-27T19:29:53.381Z,2.63
2022-10-27T19:32:21.952Z,3.22
2022-10-27T19:34:50.521Z,3.63
2022-10-27T19:37:19.144Z,3.40
2022-10-27T19:39:48.962Z,2.90
2022-10-27T19:42:17.394Z,2.75
2022-10-27T19:44:45.857Z,3.22
2022-10-27T19:47:14.367Z,3.22
2022-10-27T19:49:42.866Z,3.00
2022-10-27T19:52:11.249Z,3.05
2022-10-27T19:54:39.758Z,3.70
2022-10-27T19:57:10.455Z,2.75
2022-10-27T19:59:39.147Z,3.03
2022-10-27T20:02:08.216Z,3.05
2022-10-27T20:04:38.278Z,3.25
2022-10-27T20:07:07.219Z,3.15
2022-10-27T20:09:35.680Z,3.50
2022-10-27T20:12:04.256Z,3.30
2022-10-27T20:14:34.194Z,3.53
2022-10-27T20:17:02.788Z,3.25
2022-10-27T20:19:37.767Z,3.15
2022-10-27T20:22:07.213Z,2.97
2022-10-27T20:24:35.679Z,3.30
2022-10-27T20:27:04.705Z,2.90
2022-10-27T20:29:35.722Z,3.08
2022-10-27T20:32:04.620Z,3.10
2022-10-27T20:34:36.059Z,3.10
2022-10-27T20:37:07.095Z,2.85
2022-10-27T20:39:35.552Z,3.05
2022-10-27T20:42:04.053Z,3.15
2022-10-27T20:44:33.886Z,3.25
2022-10-27T20:47:02.428Z,3.72
2022-10-27T20:49:30.880Z,3.40
2022-10-27T20:51:59.304Z,3.78
2022-10-27T20:54:27.753Z,3.47
2022-10-27T20:56:56.149Z,3.70
2022-10-27T20:59:26.493Z,3.35
2022-10-27T21:01:56.750Z,3.17
2022-10-27T21:04:25.188Z,3.22
2022-10-27T21:06:53.701Z,3.40
2022-10-27T21:09:22.395Z,2.92
2022-10-27T21:11:51.054Z,2.85
2022-10-27T21:14:20.249Z,3.00
2022-10-27T21:16:51.770Z,2.83
2022-10-27T21:19:21.991Z,3.00
2022-10-27T21:26:48.381Z,2.83
2022-10-27T21:29:16.812Z,2.80
2022-10-27T21:31:46.549Z,3.05
2022-10-27T21:36:45.429Z,2.88
2022-10-27T21:41:43.139Z,2.85
2022-10-27T21:44:11.610Z,3.10
2022-10-27T21:46:40.091Z,2.60
2022-10-27T21:49:08.578Z,3.50
2022-10-27T21:51:37.038Z,2.92
2022-10-27T21:54:07.110Z,3.35
2022-10-27T21:56:36.865Z,3.30
2022-10-27T22:01:34.069Z,3.28
2022-10-27T22:04:03.257Z,3.08
2022-10-27T22:06:34.319Z,3.05
2022-10-27T22:09:03.161Z,3.67
2022-10-27T22:11:35.106Z,3.20
2022-10-27T22:14:04.494Z,3.28
2022-10-27T22:16:35.379Z,3.15
2022-10-27T22:19:06.501Z,3.05
2022-10-27T22:21:37.604Z,3.00
2022-10-27T22:24:07.075Z,3.25
2022-10-27T22:26:40.667Z,3.03
2022-10-27T22:29:09.501Z,3.35
2022-10-27T22:31:37.955Z,3.40
2022-10-27T22:34:06.444Z,3.42
2022-10-27T22:36:35.497Z,2.97
2022-10-27T22:39:05.037Z,3.22
2022-10-27T22:41:35.302Z,3.22
2022-10-27T22:44:06.200Z,3.15
2022-10-27T22:46:35.967Z,2.78
2022-10-27T22:51:33.391Z,3.38
2022-10-27T22:54:02.566Z,3.40
2022-10-27T22:56:33.229Z,3.00
2022-10-27T22:59:03.583Z,3.28
2022-10-27T23:01:35.991Z,2.70
2022-10-27T23:04:06.509Z,3.03
2022-10-27T23:06:37.352Z,2.80
2022-10-27T23:09:07.368Z,2.45
2022-10-27T23:11:37.073Z,2.55
2022-10-27T23:14:06.431Z,2.78
2022-10-27T23:16:36.244Z,2.80
2022-10-27T23:19:05.305Z,2.83
2022-10-27T23:21:35.901Z,2.90
2022-10-27T23:24:05.327Z,2.90
2022-10-27T23:26:35.695Z,2.78
2022-10-27T23:29:06.757Z,2.95
2022-10-27T23:31:36.542Z,3.03
2022-10-27T23:34:07.548Z,2.90
2022-10-27T23:36:36.790Z,3.15
2022-10-27T23:39:05.917Z,2.83
2022-10-27T23:41:34.407Z,2.40
2022-10-27T23:44:03.169Z,2.65
2022-10-27T23:46:31.846Z,2.35
2022-10-27T23:49:01.664Z,2.33
2022-10-27T23:51:30.453Z,2.50
2022-10-27T23:53:58.929Z,2.63
2022-10-27T23:56:27.425Z,2.35
2022-10-27T23:58:55.885Z,2.20
